createdAt,value
2023-05-04T00:02:20.987Z,8.30
2023-05-04T00:04:47.939Z,8.20
2023-05-04T00:07:14.857Z,8.10
2023-05-04T00:09:42.030Z,8.10
2023-05-04T00:12:08.796Z,8.10
2023-05-04T00:14:37.117Z,8.30
2023-05-04T00:17:06.571Z,8.20
2023-05-04T00:19:39.287Z,8.10
2023-05-04T00:22:06.384Z,7.90
2023-05-04T00:24:33.226Z,8.00
2023-05-04T00:27:00.134Z,7.70
2023-05-04T00:29:26.937Z,7.80
2023-05-04T00:31:53.745Z,7.80
2023-05-04T00:34:20.487Z,7.80
2023-05-04T00:36:47.377Z,7.90
2023-05-04T00:39:14.268Z,7.90
2023-05-04T00:41:41.290Z,7.90
2023-05-04T00:44:08.520Z,7.80
2023-05-04T00:46:37.418Z,7.70
2023-05-04T00:49:05.817Z,7.60
2023-05-04T00:51:33.167Z,7.50
2023-05-04T00:54:00.181Z,7.50
2023-05-04T00:56:29.263Z,7.50
2023-05-04T00:58:57.820Z,7.60
2023-05-04T01:01:25.817Z,7.60
2023-05-04T01:03:55.163Z,7.50
2023-05-04T01:06:33.978Z,7.60
2023-05-04T01:09:49.787Z,7.50
2023-05-04T01:12:26.098Z,7.50
2023-05-04T01:14:54.808Z,7.60
2023-05-04T01:17:22.230Z,7.50
2023-05-04T01:19:51.150Z,7.50
2023-05-04T01:22:18.008Z,7.40
2023-05-04T01:24:45.186Z,7.30
2023-05-04T01:27:23.485Z,7.20
2023-05-04T01:29:59.284Z,7.30
2023-05-04T01:32:29.633Z,7.30
2023-05-04T01:34:58.723Z,7.40
2023-05-04T01:37:25.866Z,7.30
2023-05-04T01:39:52.705Z,7.30
2023-05-04T01:42:19.894Z,7.30
2023-05-04T01:44:46.762Z,7.20
2023-05-04T01:47:13.739Z,7.30
2023-05-04T01:49:40.658Z,7.20
2023-05-04T01:52:07.399Z,7.20
2023-05-04T01:54:34.266Z,7.10
2023-05-04T01:57:01.985Z,7.20
2023-05-04T01:59:28.787Z,7.10
2023-05-04T02:01:56.380Z,7.10
2023-05-04T02:04:23.303Z,7.10
2023-05-04T02:06:50.117Z,7.00
2023-05-04T02:09:17.914Z,7.00
2023-05-04T02:11:44.715Z,7.10
2023-05-04T02:14:11.869Z,7.00
2023-05-04T02:16:39.791Z,6.90
2023-05-04T02:19:06.713Z,6.80
2023-05-04T02:21:33.782Z,6.90
2023-05-04T02:24:00.665Z,6.90
2023-05-04T02:26:27.676Z,6.80
2023-05-04T02:28:54.561Z,6.90
2023-05-04T02:31:21.406Z,6.80
2023-05-04T02:33:48.206Z,6.80
2023-05-04T02:36:15.003Z,6.60
2023-05-04T02:38:43.831Z,6.60
2023-05-04T02:41:11.682Z,6.50
2023-05-04T02:43:38.548Z,6.60
2023-05-04T02:46:05.290Z,6.60
2023-05-04T02:48:33.338Z,6.70
2023-05-04T02:51:00.883Z,6.70
2023-05-04T02:53:27.691Z,6.70
2023-05-04T02:55:54.507Z,6.70
2023-05-04T02:58:21.296Z,6.50
2023-05-04T03:00:48.091Z,6.50
2023-05-04T03:03:14.956Z,6.50
2023-05-04T03:05:42.064Z,6.50
2023-05-04T03:08:10.807Z,6.50
2023-05-04T03:10:37.576Z,6.50
2023-05-04T03:13:06.169Z,6.40
2023-05-04T03:15:33.486Z,6.30
2023-05-04T03:18:01.259Z,6.20
2023-05-04T03:20:29.438Z,6.30
2023-05-04T03:22:57.452Z,6.30
2023-05-04T03:25:25.830Z,6.30
2023-05-04T03:27:52.683Z,6.20
2023-05-04T03:30:19.604Z,6.20
2023-05-04T03:32:48.938Z,6.10
2023-05-04T03:35:24.125Z,6.10
2023-05-04T03:37:52.564Z,6.20
2023-05-04T03:40:23.124Z,6.20
2023-05-04T03:42:52.664Z,6.00
2023-05-04T03:45:20.082Z,6.00
2023-05-04T03:47:46.947Z,6.00
2023-05-04T03:50:14.281Z,5.90
2023-05-04T03:52:42.900Z,5.90
2023-05-04T03:55:10.929Z,5.90
2023-05-04T03:57:37.931Z,5.90
2023-05-04T04:00:06.534Z,5.90
2023-05-04T04:02:41.971Z,6.00
2023-05-04T04:05:15.813Z,5.90
2023-05-04T04:07:42.874Z,6.00
2023-05-04T04:10:10.409Z,6.10
2023-05-04T04:12:37.359Z,6.10
2023-05-04T04:15:04.808Z,6.10
2023-05-04T04:17:31.640Z,6.10
2023-05-04T04:19:58.552Z,6.20
2023-05-04T04:22:25.389Z,6.20
2023-05-04T04:24:52.318Z,6.00
2023-05-04T04:27:19.442Z,6.10
2023-05-04T04:29:46.344Z,6.20
2023-05-04T04:32:13.402Z,6.20
2023-05-04T04:34:40.699Z,6.30
2023-05-04T04:37:07.764Z,6.30
2023-05-04T04:39:34.579Z,6.30
2023-05-04T04:42:02.558Z,6.30
2023-05-04T04:44:29.844Z,6.40
2023-05-04T04:46:56.702Z,6.40
2023-05-04T04:49:23.629Z,6.50
2023-05-04T04:51:50.587Z,6.50
2023-05-04T04:54:17.527Z,6.60
2023-05-04T04:56:46.148Z,6.60
2023-05-04T04:59:13.998Z,6.60
2023-05-04T05:01:42.235Z,6.70
2023-05-04T05:04:09.031Z,6.80
2023-05-04T05:06:36.697Z,6.80
2023-05-04T05:09:04.033Z,6.80
2023-05-04T05:11:30.791Z,6.90
2023-05-04T05:13:59.787Z,6.90
2023-05-04T05:16:26.987Z,7.00
2023-05-04T05:18:53.897Z,7.10
2023-05-04T05:21:20.756Z,7.10
2023-05-04T05:23:47.522Z,7.30
2023-05-04T05:26:14.362Z,7.30
2023-05-04T05:28:41.349Z,7.20
2023-05-04T05:31:08.183Z,7.20
2023-05-04T05:33:35.312Z,7.30
2023-05-04T05:36:02.050Z,7.40
2023-05-04T05:38:29.160Z,7.40
2023-05-04T05:40:56.387Z,7.30
2023-05-04T05:43:23.167Z,7.50
2023-05-04T05:45:50.224Z,7.70
2023-05-04T05:48:17.170Z,7.70
2023-05-04T05:50:43.977Z,7.90
2023-05-04T05:53:10.812Z,8.00
2023-05-04T05:55:37.698Z,8.10
2023-05-04T05:58:05.754Z,8.10
2023-05-04T06:00:32.558Z,8.20
2023-05-04T06:02:59.400Z,8.30
2023-05-04T06:05:26.792Z,8.40
2023-05-04T06:07:53.663Z,8.40
2023-05-04T06:10:20.627Z,8.50
2023-05-04T06:12:47.583Z,8.50
2023-05-04T06:15:14.508Z,8.70
2023-05-04T06:17:41.847Z,8.80
2023-05-04T06:20:09.521Z,8.90
2023-05-04T06:22:36.791Z,8.90
2023-05-04T06:25:06.994Z,9.00
2023-05-04T06:27:34.871Z,9.10
2023-05-04T06:30:03.199Z,9.20
2023-05-04T06:32:30.839Z,9.30
2023-05-04T06:34:59.443Z,9.50
2023-05-04T06:37:26.721Z,9.50
2023-05-04T06:39:54.754Z,9.50
2023-05-04T06:42:21.646Z,9.70
2023-05-04T06:44:50.618Z,9.60
2023-05-04T06:47:17.389Z,9.70
2023-05-04T06:49:44.131Z,10.30
2023-05-04T06:52:11.457Z,10.60
2023-05-04T06:54:40.239Z,10.80
2023-05-04T06:57:07.279Z,10.70
2023-05-04T06:59:34.563Z,10.70
2023-05-04T07:02:01.521Z,11.20
2023-05-04T07:04:28.250Z,11.20
2023-05-04T07:06:55.406Z,11.20
2023-05-04T07:09:22.234Z,11.40
2023-05-04T07:11:49.102Z,11.80
2023-05-04T07:14:16.553Z,11.70
2023-05-04T07:16:43.598Z,11.60
2023-05-04T07:19:10.821Z,11.60
2023-05-04T07:21:38.019Z,12.00
2023-05-04T07:24:06.917Z,12.00
2023-05-04T07:26:34.091Z,12.00
2023-05-04T07:29:00.972Z,12.10
2023-05-04T07:31:30.069Z,12.40
2023-05-04T07:33:57.217Z,12.50
2023-05-04T07:36:26.572Z,12.30
2023-05-04T07:38:53.846Z,12.40
2023-05-04T07:41:20.740Z,12.70
2023-05-04T07:43:47.583Z,12.90
2023-05-04T07:46:14.673Z,13.00
2023-05-04T07:48:41.805Z,13.10
2023-05-04T07:51:16.237Z,13.20
2023-05-04T07:53:43.590Z,13.20
2023-05-04T07:56:12.512Z,13.10
2023-05-04T07:58:40.626Z,13.40
2023-05-04T08:01:07.658Z,13.30
2023-05-04T08:03:34.405Z,13.40
2023-05-04T08:06:01.197Z,13.40
2023-05-04T08:08:27.956Z,13.50
2023-05-04T08:10:57.742Z,13.80
2023-05-04T08:13:28.945Z,13.80
2023-05-04T08:15:57.682Z,13.90
2023-05-04T08:18:24.452Z,13.90
2023-05-04T08:20:51.358Z,14.10
2023-05-04T08:23:18.455Z,14.20
2023-05-04T08:25:45.209Z,14.20
2023-05-04T08:28:12.080Z,14.30
2023-05-04T08:30:38.946Z,14.50
2023-05-04T08:33:05.906Z,14.70
2023-05-04T08:35:32.667Z,14.80
2023-05-04T08:37:59.413Z,14.90
2023-05-04T08:40:26.670Z,14.90
2023-05-04T08:42:53.424Z,15.20
2023-05-04T08:45:21.547Z,15.30
2023-05-04T08:47:48.521Z,15.20
2023-05-04T08:50:15.353Z,15.30
2023-05-04T08:52:49.043Z,15.50
2023-05-04T08:55:17.205Z,15.50
2023-05-04T08:57:44.695Z,15.70
2023-05-04T09:00:13.547Z,15.90
2023-05-04T09:02:41.567Z,16.10
2023-05-04T09:05:11.383Z,16.20
2023-05-04T09:07:38.157Z,16.10
2023-05-04T09:10:06.564Z,16.30
2023-05-04T09:12:33.534Z,16.40
2023-05-04T09:15:02.426Z,16.50
2023-05-04T09:17:29.706Z,16.50
2023-05-04T09:20:01.555Z,16.60
2023-05-04T09:22:30.070Z,16.80
2023-05-04T09:25:10.931Z,17.10
2023-05-04T09:27:39.222Z,17.10
2023-05-04T09:30:06.857Z,17.10
2023-05-04T09:32:53.003Z,17.20
2023-05-04T09:35:33.704Z,17.40
2023-05-04T09:38:01.600Z,17.40
2023-05-04T09:40:42.302Z,17.10
2023-05-04T09:43:10.686Z,17.20
2023-05-04T09:45:44.801Z,17.30
2023-05-04T09:48:34.286Z,17.40
2023-05-04T09:51:07.303Z,17.50
2023-05-04T09:53:40.506Z,17.80
2023-05-04T09:56:17.890Z,18.00
2023-05-04T09:58:46.226Z,18.20
2023-05-04T10:01:13.539Z,18.00
2023-05-04T10:03:40.838Z,17.90
2023-05-04T10:06:10.840Z,18.00
2023-05-04T10:08:38.703Z,18.10
2023-05-04T10:11:06.092Z,18.20
2023-05-04T10:13:32.863Z,18.20
2023-05-04T10:16:33.847Z,18.30
2023-05-04T10:19:31.697Z,18.50
2023-05-04T10:22:43.428Z,18.40
2023-05-04T10:25:44.529Z,18.60
2023-05-04T10:28:43.801Z,18.70
2023-05-04T10:31:10.932Z,18.80
2023-05-04T10:33:42.302Z,19.00
2023-05-04T10:36:10.643Z,19.00
2023-05-04T10:38:39.703Z,19.10
2023-05-04T10:41:21.451Z,19.20
2023-05-04T10:43:53.656Z,19.40
2023-05-04T10:46:23.992Z,19.60
2023-05-04T10:48:51.573Z,19.70
2023-05-04T10:51:23.649Z,19.80
2023-05-04T10:53:52.110Z,19.90
2023-05-04T10:56:26.968Z,20.00
2023-05-04T10:58:54.995Z,19.80
2023-05-04T11:01:22.273Z,19.90
2023-05-04T11:03:49.706Z,20.00
2023-05-04T11:06:18.676Z,20.10
2023-05-04T11:08:49.537Z,20.50
2023-05-04T11:11:16.719Z,20.70
2023-05-04T11:13:47.176Z,20.80
2023-05-04T11:16:22.450Z,20.60
2023-05-04T11:18:49.244Z,20.60
2023-05-04T11:21:26.093Z,20.60
2023-05-04T11:23:59.767Z,20.90
2023-05-04T11:26:28.360Z,20.90
2023-05-04T11:28:55.160Z,20.80
2023-05-04T11:31:22.330Z,20.60
2023-05-04T11:33:54.542Z,20.50
2023-05-04T11:36:22.779Z,20.90
2023-05-04T11:38:51.102Z,21.20
2023-05-04T11:41:17.889Z,21.40
2023-05-04T11:43:45.592Z,21.50
2023-05-04T11:46:13.721Z,21.50
2023-05-04T11:48:41.763Z,21.50
2023-05-04T11:51:08.667Z,21.70
2023-05-04T11:53:39.727Z,21.40
2023-05-04T11:56:09.147Z,21.50
2023-05-04T11:58:36.646Z,21.90
2023-05-04T12:01:04.473Z,22.10
2023-05-04T12:03:51.381Z,21.90
2023-05-04T12:06:30.511Z,22.10
2023-05-04T12:09:02.592Z,22.20
2023-05-04T12:11:29.428Z,22.30
2023-05-04T12:14:13.994Z,21.90
2023-05-04T12:16:42.958Z,22.10
2023-05-04T12:19:11.538Z,22.50
2023-05-04T12:21:53.382Z,22.50
2023-05-04T12:24:25.025Z,22.60
2023-05-04T12:26:52.049Z,22.60
2023-05-04T12:29:19.067Z,22.50
2023-05-04T12:31:46.446Z,22.30
2023-05-04T12:34:13.311Z,22.30
2023-05-04T12:36:40.546Z,22.70
2023-05-04T12:39:07.588Z,22.90
2023-05-04T12:41:34.532Z,23.00
2023-05-04T12:44:01.521Z,22.90
2023-05-04T12:46:28.314Z,22.40
2023-05-04T12:48:55.294Z,22.50
2023-05-04T12:51:22.416Z,22.80
2023-05-04T12:53:49.550Z,22.90
2023-05-04T12:56:16.511Z,23.00
2023-05-04T12:58:43.411Z,23.30
2023-05-04T13:01:10.548Z,23.20
2023-05-04T13:03:37.458Z,23.40
2023-05-04T13:06:05.141Z,23.40
2023-05-04T13:08:33.719Z,23.40
2023-05-04T13:11:00.544Z,23.10
2023-05-04T13:13:29.270Z,23.50
2023-05-04T13:15:56.740Z,23.40
2023-05-04T13:18:29.410Z,22.90
2023-05-04T13:20:56.767Z,23.00
2023-05-04T13:23:24.716Z,23.20
2023-05-04T13:25:51.759Z,23.30
2023-05-04T13:28:19.146Z,23.40
2023-05-04T13:30:45.870Z,23.60
2023-05-04T13:33:25.048Z,23.60
2023-05-04T13:35:56.909Z,23.50
2023-05-04T13:38:23.755Z,23.60
2023-05-04T13:40:50.686Z,23.60
2023-05-04T13:43:17.460Z,23.90
2023-05-04T13:45:44.297Z,24.00
2023-05-04T13:48:11.135Z,23.90
2023-05-04T13:50:38.238Z,23.70
2023-05-04T13:53:05.215Z,23.80
2023-05-04T13:55:32.803Z,23.90
2023-05-04T13:57:59.586Z,24.10
2023-05-04T14:00:26.455Z,23.90
2023-05-04T14:02:53.919Z,23.90
2023-05-04T14:05:21.581Z,23.60
2023-05-04T14:07:48.392Z,23.40
2023-05-04T14:10:15.243Z,23.60
2023-05-04T14:12:42.039Z,24.20
2023-05-04T14:15:09.325Z,23.90
2023-05-04T14:17:36.976Z,23.90
2023-05-04T14:20:05.850Z,24.10
2023-05-04T14:22:32.679Z,23.90
2023-05-04T14:24:59.470Z,23.80
2023-05-04T14:27:27.396Z,23.90
2023-05-04T14:29:54.164Z,23.90
2023-05-04T14:32:20.901Z,24.00
2023-05-04T14:34:47.711Z,23.90
2023-05-04T14:37:14.806Z,24.00
2023-05-04T14:39:42.376Z,24.00
2023-05-04T14:42:09.192Z,24.30
2023-05-04T14:44:36.008Z,24.20
2023-05-04T14:47:04.874Z,24.10
2023-05-04T14:49:37.219Z,23.80
2023-05-04T14:52:04.988Z,24.10
2023-05-04T14:54:31.974Z,24.30
2023-05-04T14:56:59.766Z,24.50
2023-05-04T14:59:26.824Z,24.50
2023-05-04T15:01:55.001Z,24.10
2023-05-04T15:04:22.390Z,23.90
2023-05-04T15:06:49.624Z,23.70
2023-05-04T15:09:16.529Z,24.10
2023-05-04T15:11:43.406Z,23.90
2023-05-04T15:14:10.280Z,23.80
2023-05-04T15:16:37.193Z,23.60
2023-05-04T15:19:04.303Z,23.70
2023-05-04T15:21:31.709Z,23.60
2023-05-04T15:23:58.496Z,23.60
2023-05-04T15:26:25.726Z,23.30
2023-05-04T15:28:53.913Z,23.70
2023-05-04T15:31:21.457Z,23.80
2023-05-04T15:33:51.594Z,23.60
2023-05-04T15:36:18.581Z,23.40
2023-05-04T15:38:45.325Z,23.50
2023-05-04T15:41:13.777Z,23.60
2023-05-04T15:43:40.662Z,23.40
2023-05-04T15:46:07.412Z,23.20
2023-05-04T15:48:34.125Z,23.00
2023-05-04T15:51:01.175Z,22.90
2023-05-04T15:53:27.932Z,23.00
2023-05-04T15:55:54.624Z,23.10
2023-05-04T15:58:21.485Z,23.00
2023-05-04T16:00:48.447Z,23.10
2023-05-04T16:03:15.433Z,23.00
2023-05-04T16:05:42.195Z,23.10
2023-05-04T16:08:09.067Z,23.10
2023-05-04T16:10:36.239Z,23.10
2023-05-04T16:13:05.275Z,23.20
2023-05-04T16:15:32.272Z,23.00
2023-05-04T16:17:59.115Z,22.90
2023-05-04T16:20:29.689Z,23.00
2023-05-04T16:22:56.616Z,22.80
2023-05-04T16:25:23.391Z,22.90
2023-05-04T16:27:50.612Z,22.80
2023-05-04T16:30:17.472Z,22.80
2023-05-04T16:32:45.005Z,22.70
2023-05-04T16:35:12.100Z,22.50
2023-05-04T16:37:39.447Z,22.40
2023-05-04T16:40:11.410Z,22.40
2023-05-04T16:42:38.134Z,22.50
2023-05-04T16:45:06.101Z,22.40
2023-05-04T16:47:33.087Z,22.30
2023-05-04T16:50:00.022Z,22.50
2023-05-04T16:52:26.892Z,22.40
2023-05-04T16:54:53.680Z,22.40
2023-05-04T16:57:20.810Z,22.30
2023-05-04T16:59:47.549Z,22.20
2023-05-04T17:02:14.361Z,22.20
2023-05-04T17:04:41.100Z,22.10
2023-05-04T17:07:10.700Z,22.10
2023-05-04T17:09:38.032Z,22.20
2023-05-04T17:12:05.407Z,22.10
2023-05-04T17:14:32.324Z,22.30
2023-05-04T17:16:59.052Z,22.30
2023-05-04T17:19:25.882Z,22.20
2023-05-04T17:21:52.772Z,22.10
2023-05-04T17:24:19.972Z,22.10
2023-05-04T17:26:46.876Z,22.00
2023-05-04T17:29:13.650Z,21.80
2023-05-04T17:31:40.679Z,21.80
2023-05-04T17:34:07.461Z,21.80
2023-05-04T17:36:34.364Z,21.80
2023-05-04T17:39:01.160Z,21.70
2023-05-04T17:41:28.644Z,21.70
2023-05-04T17:43:56.138Z,21.60
2023-05-04T17:46:25.404Z,21.50
2023-05-04T17:48:53.141Z,21.50
2023-05-04T17:51:20.562Z,21.40
2023-05-04T17:53:47.312Z,21.20
2023-05-04T17:56:14.195Z,21.10
2023-05-04T17:58:40.930Z,20.90
2023-05-04T18:01:07.743Z,20.70
2023-05-04T18:03:34.821Z,20.60
2023-05-04T18:06:01.707Z,20.50
2023-05-04T18:08:29.250Z,20.10
2023-05-04T18:10:56.091Z,20.00
2023-05-04T18:13:22.941Z,19.80
2023-05-04T18:15:50.524Z,19.60
2023-05-04T18:18:17.396Z,19.40
2023-05-04T18:20:44.616Z,19.30
2023-05-04T18:23:12.581Z,19.10
2023-05-04T18:25:39.360Z,18.90
2023-05-04T18:28:09.004Z,18.80
2023-05-04T18:30:35.999Z,18.70
2023-05-04T18:33:02.832Z,18.70
2023-05-04T18:35:29.677Z,18.60
2023-05-04T18:37:56.619Z,18.30
2023-05-04T18:40:24.119Z,18.10
2023-05-04T18:42:50.866Z,18.00
2023-05-04T18:45:17.706Z,17.90
2023-05-04T18:47:44.465Z,17.70
2023-05-04T18:50:11.394Z,17.50
2023-05-04T18:52:38.150Z,17.30
2023-05-04T18:55:05.337Z,17.30
2023-05-04T18:57:32.150Z,17.20
2023-05-04T18:59:58.967Z,17.00
2023-05-04T19:02:26.577Z,16.90
2023-05-04T19:04:53.381Z,16.80
2023-05-04T19:07:20.142Z,16.70
2023-05-04T19:09:46.980Z,16.60
2023-05-04T19:12:14.280Z,16.60
2023-05-04T19:14:43.345Z,16.50
2023-05-04T19:17:10.656Z,16.40
2023-05-04T19:19:37.981Z,16.30
2023-05-04T19:22:05.341Z,16.10
2023-05-04T19:24:34.310Z,16.10
2023-05-04T19:27:01.285Z,16.20
2023-05-04T19:29:28.510Z,16.10
2023-05-04T19:31:55.392Z,15.80
2023-05-04T19:34:22.270Z,15.70
2023-05-04T19:36:49.009Z,15.50
2023-05-04T19:39:16.997Z,15.50
2023-05-04T19:41:43.732Z,15.40
2023-05-04T19:44:10.593Z,15.30
2023-05-04T19:46:37.721Z,15.10
2023-05-04T19:49:05.421Z,15.20
2023-05-04T19:51:33.045Z,15.20
2023-05-04T19:54:00.152Z,15.20
2023-05-04T19:56:26.901Z,15.00
2023-05-04T19:58:53.838Z,14.80
2023-05-04T20:01:20.654Z,14.70
2023-05-04T20:03:47.463Z,14.80
2023-05-04T20:06:14.326Z,14.50
2023-05-04T20:08:41.161Z,14.60
2023-05-04T20:11:07.938Z,14.60
2023-05-04T20:13:34.795Z,14.40
2023-05-04T20:16:01.924Z,14.40
2023-05-04T20:18:28.870Z,14.30
2023-05-04T20:20:56.663Z,14.40
2023-05-04T20:23:23.373Z,14.20
2023-05-04T20:25:50.259Z,14.10
2023-05-04T20:28:17.040Z,14.00
2023-05-04T20:30:43.875Z,13.80
2023-05-04T20:33:10.905Z,13.90
2023-05-04T20:35:40.851Z,13.80
2023-05-04T20:38:10.385Z,14.10
2023-05-04T20:40:37.703Z,14.00
2023-05-04T20:43:05.151Z,14.10
2023-05-04T20:45:32.544Z,14.10
2023-05-04T20:47:59.702Z,13.90
2023-05-04T20:50:26.745Z,13.90
2023-05-04T20:52:53.522Z,13.80
2023-05-04T20:55:20.714Z,13.90
2023-05-04T20:57:47.731Z,13.80
2023-05-04T21:00:15.170Z,13.80
2023-05-04T21:02:42.641Z,13.90
2023-05-04T21:05:09.818Z,13.80
2023-05-04T21:07:36.622Z,13.60
2023-05-04T21:10:03.731Z,13.50
2023-05-04T21:12:30.597Z,13.60
2023-05-04T21:14:57.425Z,13.60
2023-05-04T21:17:25.763Z,13.40
2023-05-04T21:19:52.537Z,13.50
2023-05-04T21:22:19.340Z,13.40
2023-05-04T21:24:46.759Z,13.40
2023-05-04T21:27:14.319Z,13.30
2023-05-04T21:29:41.179Z,13.20
2023-05-04T21:32:08.099Z,13.10
2023-05-04T21:34:34.956Z,13.30
2023-05-04T21:37:02.094Z,13.30
2023-05-04T21:39:28.832Z,13.10
2023-05-04T21:41:55.931Z,13.00
2023-05-04T21:44:23.433Z,12.90
2023-05-04T21:46:50.421Z,12.70
2023-05-04T21:49:17.371Z,12.60
2023-05-04T21:51:44.211Z,12.50
2023-05-04T21:54:13.247Z,12.70
2023-05-04T21:56:43.321Z,12.50
2023-05-04T21:59:10.295Z,12.40
2023-05-04T22:01:37.125Z,12.50
2023-05-04T22:04:07.005Z,12.50
2023-05-04T22:06:34.471Z,12.50
2023-05-04T22:09:01.276Z,12.30
2023-05-04T22:11:28.090Z,12.30
2023-05-04T22:13:55.292Z,12.30
2023-05-04T22:16:22.206Z,12.30
2023-05-04T22:18:49.690Z,12.30
2023-05-04T22:21:16.463Z,12.30
2023-05-04T22:23:43.554Z,12.00
2023-05-04T22:26:10.378Z,12.00
2023-05-04T22:28:37.154Z,11.80
2023-05-04T22:31:04.252Z,11.90
2023-05-04T22:33:31.434Z,11.90
2023-05-04T22:35:58.283Z,11.70
2023-05-04T22:38:25.094Z,11.80
2023-05-04T22:40:51.928Z,11.90
2023-05-04T22:43:18.748Z,11.70
2023-05-04T22:45:45.774Z,11.80
2023-05-04T22:48:14.105Z,11.60
2023-05-04T22:50:41.497Z,11.70
2023-05-04T22:53:08.362Z,11.70
2023-05-04T22:55:35.429Z,11.80
2023-05-04T22:58:02.144Z,11.80
2023-05-04T23:00:29.253Z,12.00
2023-05-04T23:02:56.789Z,11.90
2023-05-04T23:05:23.732Z,11.80
2023-05-04T23:07:51.484Z,11.80
2023-05-04T23:10:19.401Z,11.90
2023-05-04T23:12:46.212Z,11.70
2023-05-04T23:15:14.286Z,11.70
2023-05-04T23:17:41.350Z,11.80
2023-05-04T23:20:09.442Z,11.80
2023-05-04T23:22:36.481Z,11.80
2023-05-04T23:25:03.392Z,11.80
2023-05-04T23:27:30.154Z,11.60
2023-05-04T23:29:56.921Z,11.80
2023-05-04T23:32:23.699Z,11.60
2023-05-04T23:34:50.619Z,11.60
2023-05-04T23:37:17.419Z,11.40
2023-05-04T23:39:47.014Z,11.40
2023-05-04T23:42:14.094Z,11.40
2023-05-04T23:44:41.142Z,11.40
2023-05-04T23:47:08.018Z,11.20
2023-05-04T23:49:35.352Z,11.30
2023-05-04T23:52:02.112Z,11.30
2023-05-04T23:54:29.035Z,11.30
2023-05-04T23:56:55.892Z,11.30
2023-05-04T23:59:22.646Z,11.20
